Aérodrome :
LOGIN :

S'inscrire | Disclaimer

   EN    FR    IT 

 










Légende :    VFR   VFR Marginal   IFR   IFR Intensif   IFR Très Intensif
Visi : 
Plafond : 
>= 8 km
>= 3000ft
5 à 8 km
1000 à 3000 ft
1500m à 5 km
500 à 1000 ft
800 à 1500m
200 à 500 ft
< 800m
< 200 ft
Symboles :   Orages  Brouillard  Fortes neiges  Fortes précipitations  Vent > 20 kt
SIGMETs :   Divers  Orages  Givrage  Turbulence  Onde Orograph.  Cendres Volcan.






- Altitude de l'aérodrome : 231 ft
- Code IATA : WTN


EGXW - RAF Waddington

DERNIER METAR :
  • 031550Z 12003KT 6000 -RADZ FEW008 OVC018 04/03 Q0980 TEMPO SCT008 BKN018 RMK WHT TEMPO GRN

METARs EXPIRÉS :
  • 031450Z 14006KT 7000 RA FEW005 BKN012 04/03 Q0981 TEMPO SCT005 BKN012 RMK GRN TEMPO YLO1
  • 031350Z 14005KT 7000 -RADZ SCT004 BKN012 04/04 Q0983 TEMPO FEW004 BKN012 RMK YLO2 TEMPO GRN

TAF AMD TAF EGXW
Valide du 03 à 16h jusqu'au 04 à 09h UTC


031600Z 0316/0409 11008KT 9999 BKN016
TEMPO 0316/0409 6000 RA BKN008
PROB40
TEMPO 0316/0409 3000 RADZ BKN004
PROB30
TEMPO 0317/0322 2000 SCT001 BKN004
PROB30
TEMPO 0322/0409 SCT002



MET'MAP, la Météo Aéronautique d'un coup d'oeil ! - Copyright ORBIFLY Décembre 2007 - Disclaimer

ORBIFLY MET'MAP TEAM :

Programmation & Développement : Alexandra Zaïnal
Sur une idée originale de : Baudouin d'Aumeries
Assistance à la programmation : Marc-Olivier Méhu
Soutien technique & logistique : Manuel Goepfert

Contact : metmap@orbifly.com




SOURCES & CREDITS :

   NOAA